Time;durP1;ratioP1;P1;durP2;ratioP2;P2;SDS_P1;SDS_P2;PMS_P1;PMS_P2;Temp;Humidity;BMP_temperature;BMP_pressure;BME280_temperature;BME280_humidity;BME280_pressure;Samples;Min_cycle;Max_cycle;Signal;HPM_P1;HPM_P2
2021/12/20 00:00:09;;;;;;;15.25;4.15;;;;;;;;;;2289750;58;21149;-76
2021/12/20 00:02:36;;;;;;;9.50;3.53;;;;;;;;;;2289990;58;21321;-76
2021/12/20 00:05:03;;;;;;;11.12;4.20;;;;;;;;;;2289308;58;21078;-76
2021/12/20 00:07:30;;;;;;;14.98;3.80;;;;;;;;;;2289775;58;21055;-77
2021/12/20 00:09:57;;;;;;;11.55;3.37;;;;;;;;;;2297993;55;21708;-77
2021/12/20 00:12:24;;;;;;;11.63;3.75;;;;;;;;;;2289977;58;21119;-76
2021/12/20 00:14:51;;;;;;;11.68;3.20;;;;;;;;;;2307308;54;21588;-76
2021/12/20 00:17:18;;;;;;;10.70;3.30;;;;;;;;;;2299303;55;21130;-76
2021/12/20 00:19:45;;;;;;;11.70;3.70;;;;;;;;;;2289690;58;21142;-76
2021/12/20 00:22:12;;;;;;;10.43;3.62;;;;;;;;;;2294493;55;21130;-76
2021/12/20 00:24:39;;;;;;;12.77;3.53;;;;;;;;;;2405141;55;21389;-77
2021/12/20 00:27:08;;;;;;;12.80;3.30;;;;;;;;;;2290582;58;21533;-76
2021/12/20 00:29:35;;;;;;;15.30;4.62;;;;;;;;;;2293340;55;21077;-76
2021/12/20 00:32:02;;;;;;;6.00;3.08;;;;;;;;;;2290318;58;21562;-76
2021/12/20 00:34:29;;;;;;;10.23;3.78;;;;;;;;;;2290314;58;21055;-76
2021/12/20 00:37:02;;;;;;;11.12;4.35;;;;;;;;;;2379453;55;21055;-76
2021/12/20 00:42:19;;;;;;;15.50;3.40;;;;;;;;;;2260000;57;21166;-76
2021/12/20 00:44:46;;;;;;;15.23;3.37;;;;;;;;;;2307709;55;21071;-76
2021/12/20 00:47:13;;;;;;;11.85;4.47;;;;;;;;;;2289940;58;21070;-76
2021/12/20 00:49:40;;;;;;;13.70;4.20;;;;;;;;;;2290066;58;21047;-77
2021/12/20 00:52:07;;;;;;;9.93;3.40;;;;;;;;;;2289757;58;21150;-76
2021/12/20 00:54:34;;;;;;;9.43;3.80;;;;;;;;;;2290115;58;21059;-76
2021/12/20 00:57:01;;;;;;;10.65;3.22;;;;;;;;;;2290078;58;21071;-76
2021/12/20 00:59:28;;;;;;;14.87;4.40;;;;;;;;;;2289890;58;21107;-76
2021/12/20 01:01:55;;;;;;;17.15;4.28;;;;;;;;;;2289251;58;21051;-76
2021/12/20 01:04:22;;;;;;;11.00;3.10;;;;;;;;;;2289226;58;21624;-76
2021/12/20 01:06:49;;;;;;;9.40;3.10;;;;;;;;;;2289263;58;21071;-76
2021/12/20 01:09:16;;;;;;;9.43;3.22;;;;;;;;;;2288607;58;21058;-76
2021/12/20 01:11:49;;;;;;;7.50;3.05;;;;;;;;;;2289374;58;21122;-76
2021/12/20 01:14:22;;;;;;;10.20;3.70;;;;;;;;;;2289379;58;21059;-76
2021/12/20 01:16:49;;;;;;;8.10;3.22;;;;;;;;;;2289480;58;21450;-76
2021/12/20 01:19:16;;;;;;;12.37;3.60;;;;;;;;;;2288892;58;21121;-76
2021/12/20 01:21:43;;;;;;;10.05;3.10;;;;;;;;;;2459544;55;21067;-76
2021/12/20 01:24:10;;;;;;;12.90;3.05;;;;;;;;;;2289290;58;21672;-76
2021/12/20 01:26:37;;;;;;;14.95;2.90;;;;;;;;;;2288200;58;21122;-76
2021/12/20 01:29:04;;;;;;;9.75;3.40;;;;;;;;;;2289022;58;21067;-76
2021/12/20 01:31:31;;;;;;;12.77;2.85;;;;;;;;;;2289170;58;21143;-76
2021/12/20 01:33:58;;;;;;;9.85;3.70;;;;;;;;;;2329783;54;21066;-76
2021/12/20 01:36:25;;;;;;;9.30;2.87;;;;;;;;;;2288877;58;21138;-76
2021/12/20 01:38:52;;;;;;;9.05;3.10;;;;;;;;;;2288820;58;21130;-76
2021/12/20 01:41:19;;;;;;;7.47;2.70;;;;;;;;;;2289045;58;21075;-76
2021/12/20 01:43:46;;;;;;;11.23;3.90;;;;;;;;;;2289000;58;21063;-76
2021/12/20 01:46:13;;;;;;;12.20;3.15;;;;;;;;;;2289009;58;21074;-76
2021/12/20 01:48:43;;;;;;;10.35;3.28;;;;;;;;;;2294955;55;21130;-76
2021/12/20 01:51:30;;;;;;;12.70;3.37;;;;;;;;;;2276146;55;21337;-76
2021/12/20 01:53:57;;;;;;;25.10;4.35;;;;;;;;;;2271511;59;21122;-76
2021/12/20 01:56:25;;;;;;;6.35;2.78;;;;;;;;;;2271491;59;21211;-76
2021/12/20 01:58:52;;;;;;;13.62;2.65;;;;;;;;;;2271404;59;21193;-76
2021/12/20 02:01:23;;;;;;;8.38;2.75;;;;;;;;;;2287809;55;21632;-76
2021/12/20 02:03:57;;;;;;;8.10;2.95;;;;;;;;;;2271919;59;21467;-76
2021/12/20 02:06:30;;;;;;;15.32;3.58;;;;;;;;;;2271080;59;21039;-76
2021/12/20 02:08:57;;;;;;;7.50;2.90;;;;;;;;;;2271793;55;21060;-76
2021/12/20 02:11:24;;;;;;;15.10;3.53;;;;;;;;;;2271641;59;21063;-76
2021/12/20 02:13:51;;;;;;;6.30;2.62;;;;;;;;;;2271662;59;21219;-76
2021/12/20 02:16:19;;;;;;;9.00;3.08;;;;;;;;;;2271614;59;21074;-76
2021/12/20 02:18:46;;;;;;;12.02;3.37;;;;;;;;;;2271244;59;21701;-76
2021/12/20 02:21:13;;;;;;;7.55;3.37;;;;;;;;;;2271386;59;21178;-76
2021/12/20 02:23:40;;;;;;;9.00;2.70;;;;;;;;;;2271878;59;21661;-76
2021/12/20 02:26:11;;;;;;;12.77;3.28;;;;;;;;;;2272107;59;21064;-76
2021/12/20 02:28:42;;;;;;;7.95;3.12;;;;;;;;;;2341172;55;21084;-76
2021/12/20 02:37:01;;;;;;;9.65;3.03;;;;;;;;;;2271632;55;20992;-76
2021/12/20 02:39:28;;;;;;;11.55;3.00;;;;;;;;;;2271621;59;21138;-76
2021/12/20 02:41:55;;;;;;;6.53;3.03;;;;;;;;;;2320768;55;21119;-76
2021/12/20 02:44:24;;;;;;;7.25;3.35;;;;;;;;;;2271864;59;21190;-76
2021/12/20 02:47:04;;;;;;;9.57;3.10;;;;;;;;;;2271512;59;21135;-76
2021/12/20 02:49:32;;;;;;;8.45;3.30;;;;;;;;;;2271459;58;21154;-76
2021/12/20 02:52:02;;;;;;;7.00;2.85;;;;;;;;;;2271618;59;21059;-76
2021/12/20 02:54:29;;;;;;;7.00;2.67;;;;;;;;;;2271671;59;21735;-76
2021/12/20 02:56:56;;;;;;;6.82;2.75;;;;;;;;;;2271752;59;21052;-76
2021/12/20 02:59:24;;;;;;;7.70;2.75;;;;;;;;;;2322054;54;21669;-76
2021/12/20 03:01:53;;;;;;;8.90;2.95;;;;;;;;;;2293559;55;21083;-75
2021/12/20 03:04:20;;;;;;;7.22;2.42;;;;;;;;;;2271561;59;21143;-76
2021/12/20 03:06:50;;;;;;;10.85;3.25;;;;;;;;;;2271501;59;21068;-76
2021/12/20 03:09:18;;;;;;;9.60;3.12;;;;;;;;;;2271414;59;21131;-76
2021/12/20 03:11:46;;;;;;;16.33;2.87;;;;;;;;;;2281931;55;21071;-75
2021/12/20 03:14:18;;;;;;;10.05;2.60;;;;;;;;;;2274090;55;21665;-76
2021/12/20 03:16:45;;;;;;;7.22;2.30;;;;;;;;;;2271680;59;21073;-76
2021/12/20 03:19:12;;;;;;;9.57;2.65;;;;;;;;;;2271259;59;21071;-76
2021/12/20 03:21:39;;;;;;;11.57;2.42;;;;;;;;;;2350422;55;21076;-75
2021/12/20 03:24:07;;;;;;;10.50;3.55;;;;;;;;;;2271525;59;21692;-76
2021/12/20 03:26:34;;;;;;;10.38;2.85;;;;;;;;;;2271282;59;21123;-76
2021/12/20 03:29:03;;;;;;;8.52;2.90;;;;;;;;;;2270515;59;21641;-76
2021/12/20 03:31:30;;;;;;;6.60;2.40;;;;;;;;;;2400471;55;21573;-76
2021/12/20 03:33:58;;;;;;;9.30;2.72;;;;;;;;;;2271560;59;21146;-76
2021/12/20 03:36:25;;;;;;;4.95;2.47;;;;;;;;;;2271766;59;21060;-76
2021/12/20 03:38:52;;;;;;;5.87;2.50;;;;;;;;;;2271366;59;21071;-76
2021/12/20 03:41:19;;;;;;;11.68;2.92;;;;;;;;;;2271679;59;21130;-76
2021/12/20 03:43:46;;;;;;;10.65;2.33;;;;;;;;;;2271412;59;21063;-76
2021/12/20 03:46:13;;;;;;;6.32;2.37;;;;;;;;;;2271757;59;21460;-76
2021/12/20 03:48:40;;;;;;;10.23;2.80;;;;;;;;;;2271346;59;21067;-76
2021/12/20 03:51:07;;;;;;;13.45;3.15;;;;;;;;;;2271538;59;21708;-76
2021/12/20 03:53:35;;;;;;;8.18;3.87;;;;;;;;;;2271314;59;21064;-76
2021/12/20 03:56:02;;;;;;;15.35;4.50;;;;;;;;;;2434818;55;21054;-76
2021/12/20 03:58:29;;;;;;;11.23;4.87;;;;;;;;;;2271414;59;21063;-76
2021/12/20 04:00:57;;;;;;;12.80;4.45;;;;;;;;;;2271234;59;21048;-76
2021/12/20 04:03:25;;;;;;;7.78;3.78;;;;;;;;;;2271684;59;21724;-76
2021/12/20 04:05:52;;;;;;;7.40;2.70;;;;;;;;;;2271978;59;21123;-76
2021/12/20 04:08:19;;;;;;;8.32;3.00;;;;;;;;;;2271214;59;21071;-76
2021/12/20 04:10:46;;;;;;;10.32;2.90;;;;;;;;;;2270906;59;21601;-76
2021/12/20 04:13:13;;;;;;;7.65;2.92;;;;;;;;;;2271473;59;21135;-76
2021/12/20 04:15:40;;;;;;;8.85;2.60;;;;;;;;;;2271484;59;21223;-76
2021/12/20 04:18:07;;;;;;;11.32;3.10;;;;;;;;;;2271298;59;21142;-76
2021/12/20 04:20:34;;;;;;;10.68;2.80;;;;;;;;;;2393208;55;21127;-76
2021/12/20 04:23:01;;;;;;;8.77;2.90;;;;;;;;;;2330714;55;21191;-76
2021/12/20 04:25:28;;;;;;;8.57;2.17;;;;;;;;;;2271233;59;21059;-76
2021/12/20 04:27:55;;;;;;;16.42;4.00;;;;;;;;;;2271175;59;21052;-76
2021/12/20 04:30:22;;;;;;;9.52;2.85;;;;;;;;;;2271099;59;21123;-76
2021/12/20 04:32:49;;;;;;;5.85;2.20;;;;;;;;;;2271421;59;22116;-76
2021/12/20 04:35:17;;;;;;;7.40;2.50;;;;;;;;;;2315203;55;21598;-76
2021/12/20 04:37:46;;;;;;;8.48;2.65;;;;;;;;;;2271929;59;21139;-76
2021/12/20 04:40:18;;;;;;;8.25;2.53;;;;;;;;;;2271415;59;21159;-76
2021/12/20 04:42:45;;;;;;;5.82;2.40;;;;;;;;;;2271544;59;21067;-76
2021/12/20 04:45:12;;;;;;;7.93;3.50;;;;;;;;;;2271563;59;21040;-76
2021/12/20 04:47:40;;;;;;;7.15;2.50;;;;;;;;;;2271725;59;21155;-76
2021/12/20 04:50:09;;;;;;;7.45;2.60;;;;;;;;;;2271191;59;21610;-76
2021/12/20 04:52:36;;;;;;;10.57;2.62;;;;;;;;;;2271555;59;21072;-76
2021/12/20 04:55:04;;;;;;;4.75;2.30;;;;;;;;;;2439514;56;21108;-78
2021/12/20 04:57:31;;;;;;;11.15;2.55;;;;;;;;;;2482370;56;21151;-78
2021/12/20 04:59:58;;;;;;;9.30;2.87;;;;;;;;;;2232297;60;21357;-78
2021/12/20 05:02:25;;;;;;;7.57;2.83;;;;;;;;;;2230176;60;21043;-79
2021/12/20 05:04:52;;;;;;;8.98;2.80;;;;;;;;;;2451997;56;21102;-79
2021/12/20 05:07:19;;;;;;;9.68;2.33;;;;;;;;;;2452656;56;21107;-78
2021/12/20 05:09:46;;;;;;;7.53;2.47;;;;;;;;;;2452501;56;21107;-80
2021/12/20 05:12:14;;;;;;;10.50;2.78;;;;;;;;;;2451864;56;21051;-80
2021/12/20 05:14:43;;;;;;;7.03;2.45;;;;;;;;;;2229719;60;21046;-79
2021/12/20 05:17:11;;;;;;;8.57;2.70;;;;;;;;;;2229047;60;21043;-77
2021/12/20 05:19:38;;;;;;;5.65;3.67;;;;;;;;;;2450816;56;21043;-79
2021/12/20 05:22:06;;;;;;;6.43;2.25;;;;;;;;;;2451418;56;21613;-80
2021/12/20 05:24:33;;;;;;;11.38;3.15;;;;;;;;;;2450195;56;21672;-80
2021/12/20 05:27:00;;;;;;;8.45;3.42;;;;;;;;;;2451770;56;21063;-79
2021/12/20 05:29:27;;;;;;;8.93;2.67;;;;;;;;;;2449472;56;21122;-80
2021/12/20 05:31:54;;;;;;;7.22;2.33;;;;;;;;;;2451102;56;21146;-79
2021/12/20 05:34:22;;;;;;;5.65;2.40;;;;;;;;;;2229194;60;21897;-79
2021/12/20 05:36:49;;;;;;;8.10;2.50;;;;;;;;;;2451019;56;21102;-82
2021/12/20 05:39:16;;;;;;;5.30;2.33;;;;;;;;;;2228438;60;21150;-79
2021/12/20 05:42:01;;;;;;;5.90;2.15;;;;;;;;;;2229890;60;21066;-79
2021/12/20 05:44:28;;;;;;;11.50;2.90;;;;;;;;;;2451647;56;21079;-81
2021/12/20 05:46:55;;;;;;;5.62;3.35;;;;;;;;;;2451046;56;21051;-82
2021/12/20 05:49:22;;;;;;;6.87;2.67;;;;;;;;;;2450352;56;21039;-80
2021/12/20 05:51:49;;;;;;;6.53;2.35;;;;;;;;;;2229351;60;21131;-82
2021/12/20 05:54:16;;;;;;;10.20;2.55;;;;;;;;;;2450891;56;21138;-80
2021/12/20 05:56:43;;;;;;;6.70;2.30;;;;;;;;;;2451184;56;21055;-82
2021/12/20 05:59:10;;;;;;;10.00;2.70;;;;;;;;;;2228040;60;21071;-83
2021/12/20 06:01:37;;;;;;;6.12;2.15;;;;;;;;;;2450988;56;21067;-82
2021/12/20 06:04:05;;;;;;;8.77;2.62;;;;;;;;;;2450749;56;21059;-81
2021/12/20 06:06:32;;;;;;;11.40;2.17;;;;;;;;;;2229195;60;21102;-81
2021/12/20 06:08:59;;;;;;;6.75;2.03;;;;;;;;;;2228892;60;21138;-80
2021/12/20 06:11:26;;;;;;;9.45;2.40;;;;;;;;;;2229275;60;21063;-79
2021/12/20 06:13:53;;;;;;;6.07;2.45;;;;;;;;;;2229442;60;21055;-80
2021/12/20 06:16:20;;;;;;;7.85;2.83;;;;;;;;;;2451224;56;21039;-79
2021/12/20 06:21:50;;;;;;;;;;;;;;;;;;2232597;60;20999;-79
2021/12/20 06:24:17;;;;;;;8.95;2.42;;;;;;;;;;2229387;60;20085;-78
2021/12/20 06:26:44;;;;;;;9.00;2.70;;;;;;;;;;2451671;56;21090;-77
2021/12/20 06:29:11;;;;;;;7.35;2.67;;;;;;;;;;2228986;60;21071;-78
2021/12/20 06:31:38;;;;;;;8.80;2.45;;;;;;;;;;2229638;60;21443;-79
2021/12/20 06:34:05;;;;;;;9.32;2.60;;;;;;;;;;2229709;60;21676;-79
2021/12/20 06:36:33;;;;;;;10.32;2.40;;;;;;;;;;2229879;60;21043;-78
2021/12/20 06:39:00;;;;;;;6.68;2.50;;;;;;;;;;2450886;56;22245;-78
2021/12/20 06:41:27;;;;;;;7.10;2.62;;;;;;;;;;2230492;60;21063;-79
2021/12/20 06:43:54;;;;;;;5.10;2.17;;;;;;;;;;2229917;60;21107;-79
2021/12/20 06:46:21;;;;;;;8.70;2.33;;;;;;;;;;2230127;60;21055;-79
2021/12/20 06:48:49;;;;;;;9.35;2.30;;;;;;;;;;2451227;56;21591;-79
2021/12/20 06:51:16;;;;;;;8.10;2.62;;;;;;;;;;2230059;60;21542;-79
2021/12/20 06:53:43;;;;;;;7.10;2.70;;;;;;;;;;2229962;60;21063;-79
2021/12/20 06:56:12;;;;;;;4.62;2.30;;;;;;;;;;2229807;60;21170;-79
2021/12/20 06:58:39;;;;;;;8.15;2.80;;;;;;;;;;2230233;60;21118;-79
2021/12/20 07:01:06;;;;;;;9.70;4.40;;;;;;;;;;2229623;60;21130;-79
2021/12/20 07:03:33;;;;;;;11.10;3.22;;;;;;;;;;2230181;60;21621;-79
2021/12/20 07:06:00;;;;;;;8.88;3.00;;;;;;;;;;2230054;60;21130;-79
2021/12/20 07:08:27;;;;;;;5.37;2.40;;;;;;;;;;2229856;60;21131;-79
2021/12/20 07:10:54;;;;;;;7.03;2.92;;;;;;;;;;2230179;60;21066;-79
2021/12/20 07:13:22;;;;;;;6.95;2.75;;;;;;;;;;2229773;60;21537;-79
2021/12/20 07:15:49;;;;;;;9.98;2.95;;;;;;;;;;2230222;60;21043;-79
2021/12/20 07:18:16;;;;;;;10.75;3.78;;;;;;;;;;2229884;60;21055;-79
2021/12/20 07:20:43;;;;;;;7.43;3.25;;;;;;;;;;2451456;56;21557;-79
2021/12/20 07:23:10;;;;;;;10.90;3.60;;;;;;;;;;2230177;60;21047;-80
2021/12/20 07:25:37;;;;;;;10.30;3.92;;;;;;;;;;2229780;60;21794;-79
2021/12/20 07:28:04;;;;;;;11.82;5.20;;;;;;;;;;2451942;56;21182;-79
2021/12/20 07:30:31;;;;;;;12.15;4.37;;;;;;;;;;2228443;60;21624;-80
2021/12/20 07:32:59;;;;;;;9.65;4.00;;;;;;;;;;2230153;60;21087;-80
2021/12/20 07:35:27;;;;;;;10.15;4.15;;;;;;;;;;2229493;60;21067;-80
2021/12/20 07:37:56;;;;;;;10.48;4.20;;;;;;;;;;2230138;60;21075;-80
2021/12/20 07:40:24;;;;;;;9.30;3.35;;;;;;;;;;2451553;56;21361;-79
2021/12/20 07:42:51;;;;;;;15.98;4.10;;;;;;;;;;2230267;60;21070;-80
2021/12/20 07:45:18;;;;;;;11.50;3.92;;;;;;;;;;2230201;60;21136;-80
2021/12/20 07:47:45;;;;;;;14.85;3.90;;;;;;;;;;2229543;60;21074;-80
2021/12/20 07:50:12;;;;;;;8.40;3.28;;;;;;;;;;2451649;56;21058;-79
2021/12/20 07:52:39;;;;;;;8.45;4.12;;;;;;;;;;2230522;59;21119;-80
2021/12/20 07:55:08;;;;;;;8.38;3.30;;;;;;;;;;2230111;60;21078;-80
2021/12/20 07:57:36;;;;;;;8.10;3.95;;;;;;;;;;2230440;60;21071;-80
2021/12/20 08:00:04;;;;;;;13.07;3.47;;;;;;;;;;2451874;56;21131;-80
2021/12/20 08:02:32;;;;;;;9.07;3.70;;;;;;;;;;2230399;60;21194;-80
2021/12/20 08:04:59;;;;;;;9.88;3.78;;;;;;;;;;2452306;56;21055;-79
2021/12/20 08:07:26;;;;;;;9.57;3.75;;;;;;;;;;2451400;56;21186;-80
2021/12/20 08:09:53;;;;;;;8.32;3.33;;;;;;;;;;2221848;60;21597;-80
2021/12/20 08:12:20;;;;;;;11.12;3.37;;;;;;;;;;2230178;60;21062;-80
2021/12/20 08:14:48;;;;;;;11.65;3.45;;;;;;;;;;2452737;56;21131;-79
2021/12/20 08:17:15;;;;;;;10.13;3.72;;;;;;;;;;2230409;60;21067;-79
2021/12/20 08:19:42;;;;;;;17.85;3.35;;;;;;;;;;2230087;60;21130;-80
2021/12/20 08:22:09;;;;;;;8.60;3.05;;;;;;;;;;2230293;60;21039;-79
2021/12/20 08:24:37;;;;;;;4.37;2.65;;;;;;;;;;2230232;60;21075;-80
2021/12/20 08:27:04;;;;;;;11.25;3.28;;;;;;;;;;2230369;60;21063;-80
2021/12/20 08:29:31;;;;;;;6.93;2.65;;;;;;;;;;2229753;60;21071;-80
2021/12/20 08:32:01;;;;;;;6.35;2.87;;;;;;;;;;2452501;56;21051;-79
2021/12/20 08:34:30;;;;;;;10.27;3.17;;;;;;;;;;2230613;60;21059;-79
2021/12/20 08:36:58;;;;;;;5.62;2.60;;;;;;;;;;2231036;60;21104;-80
2021/12/20 08:39:25;;;;;;;7.65;2.67;;;;;;;;;;2452272;56;21602;-79
2021/12/20 08:41:52;;;;;;;8.07;2.72;;;;;;;;;;2451680;56;21103;-80
2021/12/20 08:44:20;;;;;;;5.18;2.70;;;;;;;;;;2230166;60;21055;-81
2021/12/20 08:46:47;;;;;;;5.45;2.17;;;;;;;;;;2229959;60;21091;-80
2021/12/20 08:49:14;;;;;;;4.50;2.47;;;;;;;;;;2451533;56;21063;-80
2021/12/20 08:51:42;;;;;;;7.12;2.60;;;;;;;;;;2230060;60;21106;-80
2021/12/20 08:54:09;;;;;;;10.07;4.32;;;;;;;;;;2452025;56;21590;-79
2021/12/20 08:56:36;;;;;;;8.10;2.70;;;;;;;;;;2230025;60;21114;-80
2021/12/20 08:59:04;;;;;;;6.70;3.55;;;;;;;;;;2229638;60;21074;-79
2021/12/20 09:01:31;;;;;;;8.82;3.40;;;;;;;;;;2451769;56;21119;-80
2021/12/20 09:03:59;;;;;;;8.43;3.10;;;;;;;;;;2229643;60;21652;-80
2021/12/20 09:06:27;;;;;;;10.55;3.72;;;;;;;;;;2452094;56;21107;-80
2021/12/20 09:08:55;;;;;;;9.85;3.42;;;;;;;;;;2229223;60;21508;-80
2021/12/20 09:11:22;;;;;;;15.70;4.45;;;;;;;;;;2229722;60;21178;-80
2021/12/20 09:13:50;;;;;;;10.23;3.58;;;;;;;;;;2452006;56;21549;-80
2021/12/20 09:16:17;;;;;;;12.25;3.35;;;;;;;;;;2229568;60;21320;-79
2021/12/20 09:18:45;;;;;;;9.35;3.58;;;;;;;;;;2228354;60;21055;-80
2021/12/20 09:21:12;;;;;;;8.52;3.60;;;;;;;;;;2228716;60;21067;-80
2021/12/20 09:23:40;;;;;;;9.07;3.50;;;;;;;;;;2228909;60;21585;-79
2021/12/20 09:26:07;;;;;;;7.75;3.95;;;;;;;;;;2229322;60;21074;-80
2021/12/20 09:28:35;;;;;;;10.73;3.90;;;;;;;;;;2229272;60;21063;-80
2021/12/20 09:31:04;;;;;;;7.87;3.58;;;;;;;;;;2228001;59;21068;-80
2021/12/20 09:33:31;;;;;;;11.50;3.37;;;;;;;;;;2228862;60;21070;-79
2021/12/20 09:35:59;;;;;;;8.95;3.28;;;;;;;;;;2228534;60;21027;-80
2021/12/20 09:38:28;;;;;;;9.73;2.87;;;;;;;;;;2228480;60;21067;-80
2021/12/20 09:41:17;;;;;;;6.75;3.03;;;;;;;;;;2228602;60;21062;-80
2021/12/20 09:43:45;;;;;;;7.30;3.55;;;;;;;;;;2229390;60;21133;-80
2021/12/20 09:46:13;;;;;;;9.70;3.05;;;;;;;;;;2229162;60;21047;-80
2021/12/20 09:48:42;;;;;;;7.00;3.08;;;;;;;;;;2228901;60;21122;-80
2021/12/20 09:51:10;;;;;;;11.15;3.97;;;;;;;;;;2450921;56;21561;-80
2021/12/20 09:53:37;;;;;;;9.70;3.15;;;;;;;;;;2229496;60;21071;-80
2021/12/20 09:56:06;;;;;;;13.23;4.97;;;;;;;;;;2228395;60;21046;-80
2021/12/20 09:58:35;;;;;;;11.95;3.55;;;;;;;;;;2450151;56;21059;-80
2021/12/20 10:01:03;;;;;;;11.90;3.65;;;;;;;;;;2450885;56;21039;-80
2021/12/20 10:03:30;;;;;;;7.93;3.67;;;;;;;;;;2451478;56;21071;-79
2021/12/20 10:05:57;;;;;;;12.27;4.53;;;;;;;;;;2229629;60;21063;-80
2021/12/20 10:08:32;;;;;;;9.35;3.95;;;;;;;;;;2229275;60;21339;-80
2021/12/20 10:11:00;;;;;;;7.57;3.17;;;;;;;;;;2229402;60;21115;-80
2021/12/20 10:13:28;;;;;;;8.55;3.45;;;;;;;;;;2451103;56;21546;-80
2021/12/20 10:15:56;;;;;;;7.53;3.00;;;;;;;;;;2451073;56;21605;-79
2021/12/20 10:18:24;;;;;;;13.10;3.25;;;;;;;;;;2228713;60;21645;-79
2021/12/20 10:20:52;;;;;;;13.45;4.18;;;;;;;;;;2450169;56;22213;-78
2021/12/20 10:23:21;;;;;;;6.25;3.47;;;;;;;;;;2229096;60;21042;-78
2021/12/20 10:25:49;;;;;;;6.03;2.75;;;;;;;;;;2450981;56;21043;-78
2021/12/20 10:28:18;;;;;;;8.55;3.12;;;;;;;;;;2229283;60;21055;-78
2021/12/20 10:30:46;;;;;;;7.10;2.83;;;;;;;;;;2229379;60;21035;-77
2021/12/20 10:33:15;;;;;;;6.45;2.70;;;;;;;;;;2229626;60;21042;-77
2021/12/20 10:35:43;;;;;;;7.37;3.80;;;;;;;;;;2451155;56;21059;-77
2021/12/20 10:38:25;;;;;;;7.10;4.15;;;;;;;;;;2450946;56;22198;-77
2021/12/20 10:40:53;;;;;;;7.10;3.08;;;;;;;;;;2228690;60;21048;-78
2021/12/20 10:43:22;;;;;;;8.07;3.05;;;;;;;;;;2450962;56;21071;-78
2021/12/20 10:45:50;;;;;;;7.30;2.70;;;;;;;;;;2229687;60;21055;-78
2021/12/20 10:48:18;;;;;;;5.55;2.72;;;;;;;;;;2228997;60;21059;-79
2021/12/20 10:50:45;;;;;;;7.62;2.58;;;;;;;;;;2228802;60;21617;-78
2021/12/20 10:53:15;;;;;;;5.93;2.78;;;;;;;;;;2229414;60;21063;-80
2021/12/20 10:55:43;;;;;;;8.45;2.85;;;;;;;;;;2451254;56;21047;-80
2021/12/20 10:58:19;;;;;;;9.55;2.90;;;;;;;;;;2451470;56;21585;-80
2021/12/20 11:00:46;;;;;;;6.82;2.87;;;;;;;;;;2229472;60;21063;-80
2021/12/20 11:03:28;;;;;;;4.50;2.42;;;;;;;;;;2451456;55;21087;-80
2021/12/20 11:09:05;;;;;;;7.03;3.25;;;;;;;;;;2223713;60;21593;-79
2021/12/20 11:11:33;;;;;;;19.48;4.22;;;;;;;;;;2451655;56;21032;-81
2021/12/20 11:14:01;;;;;;;12.40;3.03;;;;;;;;;;2451507;56;21608;-81
2021/12/20 11:16:29;;;;;;;6.32;2.50;;;;;;;;;;2229811;60;21062;-80
2021/12/20 11:19:14;;;;;;;7.03;2.70;;;;;;;;;;2229100;60;21051;-81
2021/12/20 11:21:46;;;;;;;7.25;2.65;;;;;;;;;;2229917;60;21118;-80
2021/12/20 11:24:14;;;;;;;7.57;2.97;;;;;;;;;;2229235;60;21059;-80
2021/12/20 11:26:42;;;;;;;12.07;2.78;;;;;;;;;;2451682;56;21103;-80
2021/12/20 11:29:09;;;;;;;13.07;3.15;;;;;;;;;;2229328;60;21134;-81
2021/12/20 11:31:37;;;;;;;6.60;3.30;;;;;;;;;;2227227;60;21142;-80
2021/12/20 11:34:05;;;;;;;6.85;3.67;;;;;;;;;;2229449;60;21633;-79
2021/12/20 11:36:33;;;;;;;6.12;2.30;;;;;;;;;;2451302;56;21106;-81
2021/12/20 11:39:00;;;;;;;5.35;3.28;;;;;;;;;;2450790;56;21585;-81
2021/12/20 11:41:28;;;;;;;5.85;2.60;;;;;;;;;;2229632;60;21051;-80
2021/12/20 11:43:56;;;;;;;6.35;2.60;;;;;;;;;;2229465;60;21142;-80
2021/12/20 11:46:24;;;;;;;11.05;2.55;;;;;;;;;;2229532;60;21750;-79
2021/12/20 11:48:52;;;;;;;9.80;2.58;;;;;;;;;;2450277;56;21128;-80
2021/12/20 11:51:19;;;;;;;5.87;2.70;;;;;;;;;;2451540;56;21139;-80
2021/12/20 11:53:47;;;;;;;8.18;2.65;;;;;;;;;;2451378;56;21134;-80
2021/12/20 11:56:14;;;;;;;8.13;2.78;;;;;;;;;;2451601;56;21647;-79
2021/12/20 11:58:47;;;;;;;7.78;3.08;;;;;;;;;;2450786;56;21079;-80
2021/12/20 12:01:16;;;;;;;8.07;3.83;;;;;;;;;;2229731;60;21077;-80
2021/12/20 12:03:51;;;;;;;5.95;2.62;;;;;;;;;;2451718;56;21035;-80
2021/12/20 12:06:24;;;;;;;4.75;2.40;;;;;;;;;;2228968;60;21088;-80
2021/12/20 12:08:58;;;;;;;7.80;3.00;;;;;;;;;;2449923;56;22204;-79
2021/12/20 12:11:29;;;;;;;8.60;3.00;;;;;;;;;;2451401;56;21150;-79
2021/12/20 12:14:22;;;;;;;10.50;3.15;;;;;;;;;;2451257;56;21042;-79
2021/12/20 12:16:59;;;;;;;5.18;2.92;;;;;;;;;;2451662;56;21127;-78
2021/12/20 12:20:00;;;;;;;4.62;2.53;;;;;;;;;;2450828;56;21601;-79
2021/12/20 12:22:46;;;;;;;6.57;3.03;;;;;;;;;;2451450;56;21194;-78
2021/12/20 12:25:15;;;;;;;5.75;2.37;;;;;;;;;;2450959;56;21224;-78
2021/12/20 12:27:44;;;;;;;7.95;3.10;;;;;;;;;;2451392;56;21107;-79
2021/12/20 12:30:49;;;;;;;10.10;2.95;;;;;;;;;;2229313;60;21063;-80
2021/12/20 12:33:41;;;;;;;5.20;2.10;;;;;;;;;;2230292;60;21071;-80
2021/12/20 12:36:10;;;;;;;7.03;2.65;;;;;;;;;;2451848;56;21142;-80
2021/12/20 12:38:50;;;;;;;8.50;3.10;;;;;;;;;;2451401;56;21054;-79
2021/12/20 12:41:21;;;;;;;6.87;2.58;;;;;;;;;;2451264;56;21106;-80
2021/12/20 12:43:53;;;;;;;8.32;2.50;;;;;;;;;;2451790;56;21067;-79
2021/12/20 12:46:46;;;;;;;10.18;3.00;;;;;;;;;;2452104;56;21605;-81
2021/12/20 12:49:31;;;;;;;11.52;3.67;;;;;;;;;;2228219;60;21074;-80
2021/12/20 12:51:59;;;;;;;6.53;2.50;;;;;;;;;;2229536;60;21075;-79
2021/12/20 12:54:36;;;;;;;7.85;2.53;;;;;;;;;;2229446;60;21047;-79
2021/12/20 12:57:23;;;;;;;5.32;2.28;;;;;;;;;;2229519;60;21110;-79
2021/12/20 13:00:01;;;;;;;6.22;3.03;;;;;;;;;;2451016;56;21145;-80
2021/12/20 13:02:33;;;;;;;7.97;2.40;;;;;;;;;;2452611;56;21616;-80
2021/12/20 13:05:01;;;;;;;3.72;2.40;;;;;;;;;;2230822;60;21075;-79
2021/12/20 13:07:29;;;;;;;4.75;2.70;;;;;;;;;;2230402;60;21553;-79
2021/12/20 13:09:58;;;;;;;8.07;2.83;;;;;;;;;;2229698;60;21110;-79
2021/12/20 13:12:33;;;;;;;6.05;2.25;;;;;;;;;;2229900;60;21795;-79
2021/12/20 13:15:07;;;;;;;4.55;2.25;;;;;;;;;;2452403;56;21040;-79
2021/12/20 13:17:36;;;;;;;5.62;2.60;;;;;;;;;;2451596;56;21641;-79
2021/12/20 13:20:19;;;;;;;7.85;2.85;;;;;;;;;;2451231;56;21116;-79
2021/12/20 13:22:53;;;;;;;6.50;2.70;;;;;;;;;;2450950;56;21347;-80
2021/12/20 13:25:32;;;;;;;5.72;2.35;;;;;;;;;;2451253;56;21691;-80
2021/12/20 13:28:01;;;;;;;5.45;2.45;;;;;;;;;;2451648;56;21656;-80
2021/12/20 13:30:32;;;;;;;5.50;2.58;;;;;;;;;;2451067;56;21561;-80
2021/12/20 13:33:00;;;;;;;5.75;2.42;;;;;;;;;;2450343;56;21190;-80
2021/12/20 13:35:29;;;;;;;10.80;3.20;;;;;;;;;;2229470;60;21063;-80
2021/12/20 13:38:10;;;;;;;8.95;2.90;;;;;;;;;;2229965;60;21135;-80
2021/12/20 13:40:49;;;;;;;6.25;2.83;;;;;;;;;;2229284;60;21059;-81
2021/12/20 13:43:20;;;;;;;8.25;2.92;;;;;;;;;;2451977;56;21063;-80
2021/12/20 13:46:10;;;;;;;6.78;2.80;;;;;;;;;;2451725;56;21043;-79
2021/12/20 13:48:37;;;;;;;8.68;3.80;;;;;;;;;;2446853;55;21059;-80
2021/12/20 13:51:05;;;;;;;8.15;3.42;;;;;;;;;;2228785;60;21589;-80
2021/12/20 13:53:33;;;;;;;13.18;3.92;;;;;;;;;;2229657;60;21131;-80
2021/12/20 13:56:02;;;;;;;10.63;3.67;;;;;;;;;;2451932;56;21096;-80
2021/12/20 13:58:30;;;;;;;9.32;4.20;;;;;;;;;;2451719;56;21055;-80
2021/12/20 14:00:59;;;;;;;7.25;3.90;;;;;;;;;;2451338;56;21086;-80
2021/12/20 14:03:27;;;;;;;18.55;5.82;;;;;;;;;;2452098;55;21070;-80
2021/12/20 14:05:54;;;;;;;11.45;4.68;;;;;;;;;;2229674;60;21071;-80
2021/12/20 14:08:24;;;;;;;8.68;4.37;;;;;;;;;;2450995;56;22134;-80
2021/12/20 14:10:51;;;;;;;10.27;4.78;;;;;;;;;;2451498;56;21059;-80
2021/12/20 14:13:21;;;;;;;8.02;4.75;;;;;;;;;;2452102;56;21063;-80
2021/12/20 14:15:49;;;;;;;8.27;5.20;;;;;;;;;;2451880;56;21127;-80
2021/12/20 14:18:17;;;;;;;9.73;4.45;;;;;;;;;;2451689;56;21107;-79
2021/12/20 14:20:46;;;;;;;10.45;5.40;;;;;;;;;;2451157;56;21110;-80
2021/12/20 14:23:24;;;;;;;10.60;5.07;;;;;;;;;;2451857;56;21095;-79
2021/12/20 14:25:53;;;;;;;8.73;4.97;;;;;;;;;;2451695;56;21684;-80
2021/12/20 14:28:25;;;;;;;11.23;5.28;;;;;;;;;;2451737;56;21059;-80
2021/12/20 14:30:53;;;;;;;10.93;5.53;;;;;;;;;;2451477;56;21142;-80
2021/12/20 14:33:25;;;;;;;8.70;5.25;;;;;;;;;;2451684;56;21398;-80
2021/12/20 14:35:54;;;;;;;16.25;6.20;;;;;;;;;;2229763;60;21063;-80
2021/12/20 14:38:28;;;;;;;14.65;5.68;;;;;;;;;;2452151;56;21739;-79
2021/12/20 14:40:56;;;;;;;17.40;6.35;;;;;;;;;;2452343;56;21131;-80
2021/12/20 14:43:29;;;;;;;11.35;5.90;;;;;;;;;;2452903;56;21059;-79
2021/12/20 14:46:10;;;;;;;10.05;5.50;;;;;;;;;;2452481;56;21067;-79
2021/12/20 14:48:46;;;;;;;12.00;6.37;;;;;;;;;;2452155;56;21099;-78
2021/12/20 14:51:18;;;;;;;13.50;6.30;;;;;;;;;;2452274;56;21058;-78
2021/12/20 14:53:46;;;;;;;16.65;8.00;;;;;;;;;;2230546;60;21139;-79
2021/12/20 14:56:14;;;;;;;12.45;6.90;;;;;;;;;;2452520;56;21093;-79
2021/12/20 14:58:42;;;;;;;13.20;7.32;;;;;;;;;;2452605;56;21078;-78
2021/12/20 15:01:10;;;;;;;13.02;6.95;;;;;;;;;;2452705;56;21071;-78
2021/12/20 15:03:42;;;;;;;13.60;6.60;;;;;;;;;;2452367;56;21062;-78